LTFE Airport Information

Runway Information
Runway 11 Length 9842 ft width 148 ft
Elevation 9 ft Threshold 0 ft Heading 107
Runway 29 Length 9842 ft Width 148 ft
Elevation 21 ft Threshold 0 ft Heading 287
Airport Frequencies
Type APP Name MENDERES A Frequency 119.5 MHZ
Type APP Name MENDERES A Frequency 119.775 MHZ
Type ATIS Name ATIS Frequency 128.5 MHZ
Type GND Name GND Frequency 121.95 MHZ
Type TWR Name TWR Frequency 120.5 MHZ
Airport Navaids
Type VOR-DME Name Milas Bodrum Frequency 116700 KHZ
Type NDB Name Milas Bodrum Frequency 389 KHZ
Type VOR-DME Name Kiyikislacik Frequency 113900 KHZ
Airport Weather Information & NOTAM

Deprecated: The each() function is deprecated. This message will be suppressed on further calls in /home/jyhjkdzw/public_html/lib/functions.php on line 130
ADDS - METARS form results

(1702 UTC 17 May 2021)
Data provider http://aviationweather.gov/metar/data/
 
METAR text: LTFE 171650Z 24009KT CAVOK 23/10 Q1011 NOSIG RMK RWY10 25009KT
Conditions at: LTFE (BODRUM MILAS , TR) observed 1650 UTC 17 May 2021
Temperature: 23.0°C (73°F)
Dewpoint: 10.0°C (50°F) [RH = 44%]
Pressure (altimeter): 29.85 inches Hg (1011.0 mb)
Winds: from the WSW (240 degrees) at 10 MPH (9 knots; 4.6 m/s)
Visibility: 6 or more miles (10+ km)
Ceiling: ceiling and visibility are OK
Clouds: unknown
Weather: no significant weather observed at this time

METAR text: LTFE 171620Z 25011KT CAVOK 24/09 Q1011 NOSIG RMK RWY10 25012KT
Conditions at: LTFE (BODRUM MILAS , TR) observed 1620 UTC 17 May 2021
Temperature: 24.0°C (75°F)
Dewpoint: 9.0°C (48°F) [RH = 38%]
Pressure (altimeter): 29.85 inches Hg (1011.0 mb)
Winds: from the WSW (250 degrees) at 13 MPH (11 knots; 5.7 m/s)
Visibility: 6 or more miles (10+ km)
Ceiling: ceiling and visibility are OK
Clouds: unknown
Weather: no significant weather observed at this time

Forecast for: LTFE (BODRUM MILAS , TR)
Text: TAF LTFE 171640Z 1718/1818 VRB02KT CAVOK
Forecast period: 1800 UTC 17 May 2021 to 0700 UTC 18 May 2021
Forecast type: FROM: standard forecast or significant change
Winds: variable direction winds at 2 MPH (2 knots; 1.0 m/s)
Visibility: 6 or more miles (10+ km)
Ceiling: unknown
Clouds: missing
Weather: NSW  (no significant weather)
Text: BECMG 1807/1809 26012KT FEW035
Forecast period: 0700 to 1500 UTC 18 May 2021
Forecast type: BECOMING: Conditions expected to become as follows by 0900 UTC 18 May 2021
Winds: from the W (260 degrees) at 14 MPH (12 knots; 6.2 m/s)
Visibility: 6 or more miles (10+ km)
Ceiling: at least 12,000 feet AGL
Clouds: few clouds at 3500 feet AGL
Weather: NSW  (no significant weather)
Text: BECMG 1815/1818 VRB02KT CAVOK
Forecast period: 1500 to 1800 UTC 18 May 2021
Forecast type: BECOMING: Conditions expected to become as follows by 1800 UTC 18 May 2021
Winds: variable direction winds at 2 MPH (2 knots; 1.0 m/s)
Visibility: 6 or more miles (10+ km)
Ceiling: unknown
Clouds: missing
Weather: NSW  (no significant weather)